sensor_id;sensor_type;location;lat;lon;timestamp;P1;durP1;ratioP1;P2;durP2;ratioP2
19149;SDS011;9707;49.158;8.632;2022-08-01T00:02:24;3.13;;;1.90;;
19149;SDS011;9707;49.158;8.632;2022-08-01T00:04:49;4.90;;;1.90;;
19149;SDS011;9707;49.158;8.632;2022-08-01T00:07:15;3.00;;;2.30;;
19149;SDS011;9707;49.158;8.632;2022-08-01T00:09:40;2.35;;;2.05;;
19149;SDS011;9707;49.158;8.632;2022-08-01T00:12:05;2.92;;;1.70;;
19149;SDS011;9707;49.158;8.632;2022-08-01T00:14:31;3.15;;;2.10;;
19149;SDS011;9707;49.158;8.632;2022-08-01T00:16:56;3.28;;;1.90;;
19149;SDS011;9707;49.158;8.632;2022-08-01T00:19:21;2.90;;;1.80;;
19149;SDS011;9707;49.158;8.632;2022-08-01T00:21:47;2.47;;;1.77;;
19149;SDS011;9707;49.158;8.632;2022-08-01T00:24:12;3.15;;;2.00;;
19149;SDS011;9707;49.158;8.632;2022-08-01T00:26:37;2.78;;;2.03;;
19149;SDS011;9707;49.158;8.632;2022-08-01T00:29:03;2.33;;;1.73;;
19149;SDS011;9707;49.158;8.632;2022-08-01T00:31:28;2.65;;;1.92;;
19149;SDS011;9707;49.158;8.632;2022-08-01T00:33:54;3.13;;;2.33;;
19149;SDS011;9707;49.158;8.632;2022-08-01T00:36:19;3.80;;;1.98;;
19149;SDS011;9707;49.158;8.632;2022-08-01T00:38:44;2.42;;;2.00;;
19149;SDS011;9707;49.158;8.632;2022-08-01T00:41:10;2.78;;;1.92;;
19149;SDS011;9707;49.158;8.632;2022-08-01T00:43:35;3.83;;;1.92;;
19149;SDS011;9707;49.158;8.632;2022-08-01T00:46:00;2.72;;;2.22;;
19149;SDS011;9707;49.158;8.632;2022-08-01T00:48:25;5.00;;;2.35;;
19149;SDS011;9707;49.158;8.632;2022-08-01T00:50:51;4.82;;;2.28;;
19149;SDS011;9707;49.158;8.632;2022-08-01T00:53:16;2.05;;;1.88;;
19149;SDS011;9707;49.158;8.632;2022-08-01T00:55:42;2.85;;;2.08;;
19149;SDS011;9707;49.158;8.632;2022-08-01T00:58:08;2.55;;;1.70;;
19149;SDS011;9707;49.158;8.632;2022-08-01T01:00:34;2.67;;;1.90;;
19149;SDS011;9707;49.158;8.632;2022-08-01T01:10:03;2.97;;;1.85;;
19149;SDS011;9707;49.158;8.632;2022-08-01T01:13:13;4.75;;;2.20;;
19149;SDS011;9707;49.158;8.632;2022-08-01T01:15:41;2.75;;;2.08;;
19149;SDS011;9707;49.158;8.632;2022-08-01T01:18:17;3.10;;;2.28;;
19149;SDS011;9707;49.158;8.632;2022-08-01T01:29:41;3.25;;;1.83;;
19149;SDS011;9707;49.158;8.632;2022-08-01T01:34:46;2.42;;;2.03;;
19149;SDS011;9707;49.158;8.632;2022-08-01T01:37:18;2.50;;;2.03;;
19149;SDS011;9707;49.158;8.632;2022-08-01T01:39:46;2.45;;;1.92;;
19149;SDS011;9707;49.158;8.632;2022-08-01T01:42:14;3.00;;;1.92;;
19149;SDS011;9707;49.158;8.632;2022-08-01T01:44:42;4.57;;;2.50;;
19149;SDS011;9707;49.158;8.632;2022-08-01T01:47:09;2.63;;;1.95;;
19149;SDS011;9707;49.158;8.632;2022-08-01T01:49:37;3.15;;;1.90;;
19149;SDS011;9707;49.158;8.632;2022-08-01T01:52:07;2.17;;;1.88;;
19149;SDS011;9707;49.158;8.632;2022-08-01T01:54:35;2.63;;;2.10;;
19149;SDS011;9707;49.158;8.632;2022-08-01T01:57:04;2.72;;;2.25;;
19149;SDS011;9707;49.158;8.632;2022-08-01T01:59:31;2.67;;;1.92;;
19149;SDS011;9707;49.158;8.632;2022-08-01T02:02:01;2.25;;;2.00;;
19149;SDS011;9707;49.158;8.632;2022-08-01T02:04:28;2.50;;;2.00;;
19149;SDS011;9707;49.158;8.632;2022-08-01T02:06:55;2.75;;;2.20;;
19149;SDS011;9707;49.158;8.632;2022-08-01T02:09:23;3.65;;;2.17;;
19149;SDS011;9707;49.158;8.632;2022-08-01T02:11:51;3.60;;;1.90;;
19149;SDS011;9707;49.158;8.632;2022-08-01T02:14:18;2.80;;;2.13;;
19149;SDS011;9707;49.158;8.632;2022-08-01T02:16:47;2.38;;;2.17;;
19149;SDS011;9707;49.158;8.632;2022-08-01T02:19:13;2.65;;;2.10;;
19149;SDS011;9707;49.158;8.632;2022-08-01T02:21:44;1.90;;;1.48;;
19149;SDS011;9707;49.158;8.632;2022-08-01T02:24:21;3.30;;;2.22;;
19149;SDS011;9707;49.158;8.632;2022-08-01T02:27:01;4.22;;;2.08;;
19149;SDS011;9707;49.158;8.632;2022-08-01T02:29:53;2.85;;;2.03;;
19149;SDS011;9707;49.158;8.632;2022-08-01T02:32:27;2.65;;;2.17;;
19149;SDS011;9707;49.158;8.632;2022-08-01T02:34:57;5.55;;;2.45;;
19149;SDS011;9707;49.158;8.632;2022-08-01T02:37:26;2.92;;;2.13;;
19149;SDS011;9707;49.158;8.632;2022-08-01T02:39:53;2.47;;;2.13;;
19149;SDS011;9707;49.158;8.632;2022-08-01T02:42:20;3.42;;;2.50;;
19149;SDS011;9707;49.158;8.632;2022-08-01T02:44:48;2.08;;;1.67;;
19149;SDS011;9707;49.158;8.632;2022-08-01T02:47:14;3.83;;;2.30;;
19149;SDS011;9707;49.158;8.632;2022-08-01T02:49:42;4.00;;;2.28;;
19149;SDS011;9707;49.158;8.632;2022-08-01T02:52:11;3.03;;;1.80;;
19149;SDS011;9707;49.158;8.632;2022-08-01T02:54:39;2.58;;;2.20;;
19149;SDS011;9707;49.158;8.632;2022-08-01T02:57:07;2.70;;;2.30;;
19149;SDS011;9707;49.158;8.632;2022-08-01T02:59:33;3.00;;;2.10;;
19149;SDS011;9707;49.158;8.632;2022-08-01T03:02:02;2.47;;;1.90;;
19149;SDS011;9707;49.158;8.632;2022-08-01T03:04:30;4.40;;;2.30;;
19149;SDS011;9707;49.158;8.632;2022-08-01T03:06:57;3.05;;;1.90;;
19149;SDS011;9707;49.158;8.632;2022-08-01T03:09:25;2.25;;;2.00;;
19149;SDS011;9707;49.158;8.632;2022-08-01T03:11:55;4.70;;;2.00;;
19149;SDS011;9707;49.158;8.632;2022-08-01T03:14:22;4.07;;;2.10;;
19149;SDS011;9707;49.158;8.632;2022-08-01T03:16:50;3.25;;;2.17;;
19149;SDS011;9707;49.158;8.632;2022-08-01T03:19:16;3.17;;;2.42;;
19149;SDS011;9707;49.158;8.632;2022-08-01T03:21:44;3.47;;;1.90;;
19149;SDS011;9707;49.158;8.632;2022-08-01T03:24:13;3.25;;;2.00;;
19149;SDS011;9707;49.158;8.632;2022-08-01T03:26:39;3.38;;;1.90;;
19149;SDS011;9707;49.158;8.632;2022-08-01T03:29:08;3.58;;;2.03;;
19149;SDS011;9707;49.158;8.632;2022-08-01T03:31:37;2.95;;;1.90;;
19149;SDS011;9707;49.158;8.632;2022-08-01T03:34:07;3.28;;;1.98;;
19149;SDS011;9707;49.158;8.632;2022-08-01T03:36:33;3.85;;;2.42;;
19149;SDS011;9707;49.158;8.632;2022-08-01T03:39:06;2.42;;;2.15;;
19149;SDS011;9707;49.158;8.632;2022-08-01T03:41:37;2.58;;;1.98;;
19149;SDS011;9707;49.158;8.632;2022-08-01T03:44:16;2.88;;;2.03;;
19149;SDS011;9707;49.158;8.632;2022-08-01T03:46:48;2.80;;;2.08;;
19149;SDS011;9707;49.158;8.632;2022-08-01T03:52:15;2.70;;;2.00;;
19149;SDS011;9707;49.158;8.632;2022-08-01T03:54:42;2.97;;;1.83;;
19149;SDS011;9707;49.158;8.632;2022-08-01T03:57:12;2.03;;;1.83;;
19149;SDS011;9707;49.158;8.632;2022-08-01T03:59:39;4.35;;;2.42;;
19149;SDS011;9707;49.158;8.632;2022-08-01T04:02:06;3.53;;;2.30;;
19149;SDS011;9707;49.158;8.632;2022-08-01T04:04:32;3.22;;;2.28;;
19149;SDS011;9707;49.158;8.632;2022-08-01T04:06:57;3.38;;;2.33;;
19149;SDS011;9707;49.158;8.632;2022-08-01T04:09:28;3.50;;;2.40;;
19149;SDS011;9707;49.158;8.632;2022-08-01T04:11:54;3.55;;;2.22;;
19149;SDS011;9707;49.158;8.632;2022-08-01T04:14:20;3.55;;;2.13;;
19149;SDS011;9707;49.158;8.632;2022-08-01T04:16:45;2.40;;;2.20;;
19149;SDS011;9707;49.158;8.632;2022-08-01T04:19:10;3.00;;;2.10;;
19149;SDS011;9707;49.158;8.632;2022-08-01T04:21:36;3.38;;;2.00;;
19149;SDS011;9707;49.158;8.632;2022-08-01T04:24:03;3.50;;;2.65;;
19149;SDS011;9707;49.158;8.632;2022-08-01T04:26:32;4.30;;;3.22;;
19149;SDS011;9707;49.158;8.632;2022-08-01T04:29:01;2.45;;;2.25;;
19149;SDS011;9707;49.158;8.632;2022-08-01T04:31:29;3.63;;;2.35;;
19149;SDS011;9707;49.158;8.632;2022-08-01T04:33:56;2.97;;;2.40;;
19149;SDS011;9707;49.158;8.632;2022-08-01T04:36:24;2.75;;;2.20;;
19149;SDS011;9707;49.158;8.632;2022-08-01T04:38:52;3.10;;;2.10;;
19149;SDS011;9707;49.158;8.632;2022-08-01T04:41:22;5.35;;;2.20;;
19149;SDS011;9707;49.158;8.632;2022-08-01T04:43:48;4.53;;;2.30;;
19149;SDS011;9707;49.158;8.632;2022-08-01T04:46:16;2.85;;;1.92;;
19149;SDS011;9707;49.158;8.632;2022-08-01T04:48:42;2.78;;;1.92;;
19149;SDS011;9707;49.158;8.632;2022-08-01T04:51:12;3.90;;;2.00;;
19149;SDS011;9707;49.158;8.632;2022-08-01T04:53:44;2.85;;;2.05;;
19149;SDS011;9707;49.158;8.632;2022-08-01T04:56:13;4.18;;;2.50;;
19149;SDS011;9707;49.158;8.632;2022-08-01T04:58:40;2.85;;;2.05;;
19149;SDS011;9707;49.158;8.632;2022-08-01T05:01:06;3.50;;;2.20;;
19149;SDS011;9707;49.158;8.632;2022-08-01T05:03:32;6.10;;;3.00;;
19149;SDS011;9707;49.158;8.632;2022-08-01T05:05:57;2.97;;;2.53;;
19149;SDS011;9707;49.158;8.632;2022-08-01T05:08:22;3.80;;;2.60;;
19149;SDS011;9707;49.158;8.632;2022-08-01T05:10:48;3.92;;;2.17;;
19149;SDS011;9707;49.158;8.632;2022-08-01T05:13:13;5.70;;;2.47;;
19149;SDS011;9707;49.158;8.632;2022-08-01T05:15:38;2.90;;;2.53;;
19149;SDS011;9707;49.158;8.632;2022-08-01T05:18:04;3.92;;;2.33;;
19149;SDS011;9707;49.158;8.632;2022-08-01T05:20:29;3.40;;;2.33;;
19149;SDS011;9707;49.158;8.632;2022-08-01T05:22:55;2.90;;;2.40;;
19149;SDS011;9707;49.158;8.632;2022-08-01T05:25:20;2.92;;;2.25;;
19149;SDS011;9707;49.158;8.632;2022-08-01T05:27:46;3.28;;;2.45;;
19149;SDS011;9707;49.158;8.632;2022-08-01T05:30:12;3.40;;;2.20;;
19149;SDS011;9707;49.158;8.632;2022-08-01T05:32:37;5.05;;;2.70;;
19149;SDS011;9707;49.158;8.632;2022-08-01T05:35:03;5.35;;;2.50;;
19149;SDS011;9707;49.158;8.632;2022-08-01T05:37:29;5.93;;;2.30;;
19149;SDS011;9707;49.158;8.632;2022-08-01T05:39:54;4.93;;;2.40;;
19149;SDS011;9707;49.158;8.632;2022-08-01T05:42:20;7.05;;;2.75;;
19149;SDS011;9707;49.158;8.632;2022-08-01T05:44:45;5.88;;;2.55;;
19149;SDS011;9707;49.158;8.632;2022-08-01T05:47:10;6.13;;;2.83;;
19149;SDS011;9707;49.158;8.632;2022-08-01T05:49:36;6.40;;;2.47;;
19149;SDS011;9707;49.158;8.632;2022-08-01T05:52:01;3.60;;;2.53;;
19149;SDS011;9707;49.158;8.632;2022-08-01T05:54:27;5.85;;;2.70;;
19149;SDS011;9707;49.158;8.632;2022-08-01T05:56:52;6.00;;;2.55;;
19149;SDS011;9707;49.158;8.632;2022-08-01T05:59:17;3.08;;;2.40;;
19149;SDS011;9707;49.158;8.632;2022-08-01T06:01:43;5.32;;;2.75;;
19149;SDS011;9707;49.158;8.632;2022-08-01T06:04:08;3.88;;;2.17;;
19149;SDS011;9707;49.158;8.632;2022-08-01T06:06:34;2.85;;;2.20;;
19149;SDS011;9707;49.158;8.632;2022-08-01T06:08:59;3.88;;;2.65;;
19149;SDS011;9707;49.158;8.632;2022-08-01T06:11:24;4.35;;;2.53;;
19149;SDS011;9707;49.158;8.632;2022-08-01T06:13:50;2.72;;;2.28;;
19149;SDS011;9707;49.158;8.632;2022-08-01T06:16:16;6.13;;;2.83;;
19149;SDS011;9707;49.158;8.632;2022-08-01T06:18:41;3.50;;;2.45;;
19149;SDS011;9707;49.158;8.632;2022-08-01T06:21:07;4.25;;;2.17;;
19149;SDS011;9707;49.158;8.632;2022-08-01T06:23:32;5.07;;;2.33;;
19149;SDS011;9707;49.158;8.632;2022-08-01T06:25:57;3.97;;;2.53;;
19149;SDS011;9707;49.158;8.632;2022-08-01T06:28:23;4.30;;;2.15;;
19149;SDS011;9707;49.158;8.632;2022-08-01T06:30:49;4.95;;;2.13;;
19149;SDS011;9707;49.158;8.632;2022-08-01T06:33:14;5.00;;;2.40;;
19149;SDS011;9707;49.158;8.632;2022-08-01T06:35:39;3.22;;;2.17;;
19149;SDS011;9707;49.158;8.632;2022-08-01T06:38:05;2.70;;;2.22;;
19149;SDS011;9707;49.158;8.632;2022-08-01T06:40:30;4.35;;;2.00;;
19149;SDS011;9707;49.158;8.632;2022-08-01T06:42:55;2.83;;;2.10;;
19149;SDS011;9707;49.158;8.632;2022-08-01T06:45:21;5.55;;;2.58;;
19149;SDS011;9707;49.158;8.632;2022-08-01T06:47:51;2.75;;;2.17;;
19149;SDS011;9707;49.158;8.632;2022-08-01T06:50:16;2.08;;;1.63;;
19149;SDS011;9707;49.158;8.632;2022-08-01T06:52:42;2.20;;;1.40;;
19149;SDS011;9707;49.158;8.632;2022-08-01T06:55:07;2.65;;;1.75;;
19149;SDS011;9707;49.158;8.632;2022-08-01T06:57:33;3.25;;;1.70;;
19149;SDS011;9707;49.158;8.632;2022-08-01T07:00:06;2.85;;;1.70;;
19149;SDS011;9707;49.158;8.632;2022-08-01T07:02:36;3.03;;;1.73;;
19149;SDS011;9707;49.158;8.632;2022-08-01T07:05:02;1.73;;;1.00;;
19149;SDS011;9707;49.158;8.632;2022-08-01T07:07:29;2.97;;;0.93;;
19149;SDS011;9707;49.158;8.632;2022-08-01T07:09:54;1.20;;;0.93;;
19149;SDS011;9707;49.158;8.632;2022-08-01T07:12:20;0.90;;;0.65;;
19149;SDS011;9707;49.158;8.632;2022-08-01T07:14:45;2.97;;;1.00;;
19149;SDS011;9707;49.158;8.632;2022-08-01T07:17:10;1.63;;;1.05;;
19149;SDS011;9707;49.158;8.632;2022-08-01T07:19:36;1.67;;;0.80;;
19149;SDS011;9707;49.158;8.632;2022-08-01T07:22:02;1.70;;;1.23;;
19149;SDS011;9707;49.158;8.632;2022-08-01T07:24:27;3.65;;;1.20;;
19149;SDS011;9707;49.158;8.632;2022-08-01T07:26:54;1.20;;;0.90;;
19149;SDS011;9707;49.158;8.632;2022-08-01T07:29:23;1.58;;;0.98;;
19149;SDS011;9707;49.158;8.632;2022-08-01T07:31:49;2.22;;;0.80;;
19149;SDS011;9707;49.158;8.632;2022-08-01T07:34:15;1.33;;;0.80;;
19149;SDS011;9707;49.158;8.632;2022-08-01T07:36:40;1.98;;;0.93;;
19149;SDS011;9707;49.158;8.632;2022-08-01T07:39:06;1.30;;;0.80;;
19149;SDS011;9707;49.158;8.632;2022-08-01T07:41:31;1.85;;;0.50;;
19149;SDS011;9707;49.158;8.632;2022-08-01T07:43:56;1.35;;;0.80;;
19149;SDS011;9707;49.158;8.632;2022-08-01T07:46:21;1.65;;;0.70;;
19149;SDS011;9707;49.158;8.632;2022-08-01T07:48:47;1.33;;;0.80;;
19149;SDS011;9707;49.158;8.632;2022-08-01T07:51:12;1.50;;;1.00;;
19149;SDS011;9707;49.158;8.632;2022-08-01T07:53:38;1.48;;;0.68;;
19149;SDS011;9707;49.158;8.632;2022-08-01T07:56:03;2.15;;;0.82;;
19149;SDS011;9707;49.158;8.632;2022-08-01T07:58:32;1.83;;;1.02;;
19149;SDS011;9707;49.158;8.632;2022-08-01T08:00:58;1.67;;;0.80;;
19149;SDS011;9707;49.158;8.632;2022-08-01T08:03:23;0.82;;;0.60;;
19149;SDS011;9707;49.158;8.632;2022-08-01T08:05:49;0.93;;;0.73;;
19149;SDS011;9707;49.158;8.632;2022-08-01T08:08:14;1.50;;;0.77;;
19149;SDS011;9707;49.158;8.632;2022-08-01T08:10:41;1.67;;;0.57;;
19149;SDS011;9707;49.158;8.632;2022-08-01T08:13:07;2.05;;;0.80;;
19149;SDS011;9707;49.158;8.632;2022-08-01T08:15:32;0.80;;;0.75;;
19149;SDS011;9707;49.158;8.632;2022-08-01T08:17:58;1.83;;;1.00;;
19149;SDS011;9707;49.158;8.632;2022-08-01T08:20:23;0.98;;;0.73;;
19149;SDS011;9707;49.158;8.632;2022-08-01T08:22:51;1.17;;;1.02;;
19149;SDS011;9707;49.158;8.632;2022-08-01T08:25:17;2.25;;;0.70;;
19149;SDS011;9707;49.158;8.632;2022-08-01T08:27:46;1.10;;;0.90;;
19149;SDS011;9707;49.158;8.632;2022-08-01T08:30:12;2.92;;;0.90;;
19149;SDS011;9707;49.158;8.632;2022-08-01T08:32:38;1.83;;;0.88;;
19149;SDS011;9707;49.158;8.632;2022-08-01T08:35:04;1.52;;;0.90;;
19149;SDS011;9707;49.158;8.632;2022-08-01T08:37:30;1.23;;;0.90;;
19149;SDS011;9707;49.158;8.632;2022-08-01T08:39:56;1.42;;;0.80;;
19149;SDS011;9707;49.158;8.632;2022-08-01T08:42:22;2.47;;;0.70;;
19149;SDS011;9707;49.158;8.632;2022-08-01T08:44:47;3.60;;;1.00;;
19149;SDS011;9707;49.158;8.632;2022-08-01T08:47:13;2.90;;;0.90;;
19149;SDS011;9707;49.158;8.632;2022-08-01T08:49:41;0.98;;;0.60;;
19149;SDS011;9707;49.158;8.632;2022-08-01T08:52:08;3.33;;;1.20;;
19149;SDS011;9707;49.158;8.632;2022-08-01T08:54:35;1.00;;;0.80;;
19149;SDS011;9707;49.158;8.632;2022-08-01T08:57:02;1.10;;;0.88;;
19149;SDS011;9707;49.158;8.632;2022-08-01T08:59:28;1.52;;;0.60;;
19149;SDS011;9707;49.158;8.632;2022-08-01T09:01:54;0.90;;;0.80;;
19149;SDS011;9707;49.158;8.632;2022-08-01T09:04:21;4.35;;;0.70;;
19149;SDS011;9707;49.158;8.632;2022-08-01T09:06:49;1.15;;;0.70;;
19149;SDS011;9707;49.158;8.632;2022-08-01T09:09:15;1.25;;;0.80;;
19149;SDS011;9707;49.158;8.632;2022-08-01T09:11:41;1.25;;;0.73;;
19149;SDS011;9707;49.158;8.632;2022-08-01T09:14:17;1.92;;;0.88;;
19149;SDS011;9707;49.158;8.632;2022-08-01T09:16:58;0.98;;;0.63;;
19149;SDS011;9707;49.158;8.632;2022-08-01T09:19:36;0.95;;;0.60;;
19149;SDS011;9707;49.158;8.632;2022-08-01T09:22:13;2.15;;;0.75;;
19149;SDS011;9707;49.158;8.632;2022-08-01T09:24:42;2.17;;;0.90;;
19149;SDS011;9707;49.158;8.632;2022-08-01T09:27:23;2.10;;;0.80;;
19149;SDS011;9707;49.158;8.632;2022-08-01T09:29:50;1.38;;;1.00;;
19149;SDS011;9707;49.158;8.632;2022-08-01T09:32:17;1.15;;;0.95;;
19149;SDS011;9707;49.158;8.632;2022-08-01T09:34:42;1.10;;;0.82;;
19149;SDS011;9707;49.158;8.632;2022-08-01T09:37:08;0.90;;;0.57;;
19149;SDS011;9707;49.158;8.632;2022-08-01T09:39:37;1.40;;;1.30;;
19149;SDS011;9707;49.158;8.632;2022-08-01T09:42:26;3.35;;;1.10;;
19149;SDS011;9707;49.158;8.632;2022-08-01T09:44:52;1.23;;;0.70;;
19149;SDS011;9707;49.158;8.632;2022-08-01T09:47:18;1.48;;;0.70;;
19149;SDS011;9707;49.158;8.632;2022-08-01T09:49:45;1.80;;;1.02;;
19149;SDS011;9707;49.158;8.632;2022-08-01T09:52:20;1.55;;;0.88;;
19149;SDS011;9707;49.158;8.632;2022-08-01T09:54:57;1.88;;;1.02;;
19149;SDS011;9707;49.158;8.632;2022-08-01T09:57:31;1.98;;;0.90;;
19149;SDS011;9707;49.158;8.632;2022-08-01T09:59:58;4.72;;;1.63;;
19149;SDS011;9707;49.158;8.632;2022-08-01T10:04:53;2.17;;;0.90;;
19149;SDS011;9707;49.158;8.632;2022-08-01T10:07:19;0.80;;;0.70;;
19149;SDS011;9707;49.158;8.632;2022-08-01T10:09:45;1.08;;;0.93;;
19149;SDS011;9707;49.158;8.632;2022-08-01T10:12:12;3.53;;;1.20;;
19149;SDS011;9707;49.158;8.632;2022-08-01T10:14:47;0.90;;;0.90;;
19149;SDS011;9707;49.158;8.632;2022-08-01T10:17:20;1.50;;;1.00;;
19149;SDS011;9707;49.158;8.632;2022-08-01T10:19:48;1.85;;;0.88;;
19149;SDS011;9707;49.158;8.632;2022-08-01T10:22:15;1.00;;;0.80;;
19149;SDS011;9707;49.158;8.632;2022-08-01T10:24:43;2.67;;;0.68;;
19149;SDS011;9707;49.158;8.632;2022-08-01T10:27:10;1.70;;;1.00;;
19149;SDS011;9707;49.158;8.632;2022-08-01T10:32:07;1.75;;;0.70;;
19149;SDS011;9707;49.158;8.632;2022-08-01T10:34:34;4.57;;;1.10;;
19149;SDS011;9707;49.158;8.632;2022-08-01T10:37:00;1.42;;;0.90;;
19149;SDS011;9707;49.158;8.632;2022-08-01T10:39:26;1.27;;;0.93;;
19149;SDS011;9707;49.158;8.632;2022-08-01T10:41:55;1.63;;;0.68;;
19149;SDS011;9707;49.158;8.632;2022-08-01T10:44:20;1.65;;;1.00;;
19149;SDS011;9707;49.158;8.632;2022-08-01T10:46:48;2.00;;;0.98;;
19149;SDS011;9707;49.158;8.632;2022-08-01T10:49:17;2.85;;;1.20;;
19149;SDS011;9707;49.158;8.632;2022-08-01T10:51:47;1.73;;;0.90;;
19149;SDS011;9707;49.158;8.632;2022-08-01T10:54:13;1.77;;;1.00;;
19149;SDS011;9707;49.158;8.632;2022-08-01T10:59:07;1.83;;;1.10;;
19149;SDS011;9707;49.158;8.632;2022-08-01T11:01:33;2.28;;;1.20;;
19149;SDS011;9707;49.158;8.632;2022-08-01T11:04:14;2.78;;;1.13;;
19149;SDS011;9707;49.158;8.632;2022-08-01T11:14:22;2.15;;;1.00;;
19149;SDS011;9707;49.158;8.632;2022-08-01T11:16:47;1.60;;;1.15;;
19149;SDS011;9707;49.158;8.632;2022-08-01T11:19:13;4.35;;;1.00;;
19149;SDS011;9707;49.158;8.632;2022-08-01T11:27:16;1.25;;;1.10;;
19149;SDS011;9707;49.158;8.632;2022-08-01T11:32:51;1.85;;;1.20;;
19149;SDS011;9707;49.158;8.632;2022-08-01T11:35:21;1.15;;;1.08;;
19149;SDS011;9707;49.158;8.632;2022-08-01T11:37:50;0.70;;;0.70;;
19149;SDS011;9707;49.158;8.632;2022-08-01T11:40:25;3.40;;;1.20;;
19149;SDS011;9707;49.158;8.632;2022-08-01T11:45:53;3.97;;;1.08;;
19149;SDS011;9707;49.158;8.632;2022-08-01T11:48:26;1.45;;;0.95;;
19149;SDS011;9707;49.158;8.632;2022-08-01T11:50:53;1.23;;;1.13;;
19149;SDS011;9707;49.158;8.632;2022-08-01T11:53:19;1.10;;;0.90;;
19149;SDS011;9707;49.158;8.632;2022-08-01T11:55:46;2.70;;;1.30;;
19149;SDS011;9707;49.158;8.632;2022-08-01T11:58:16;2.28;;;0.98;;
19149;SDS011;9707;49.158;8.632;2022-08-01T12:00:53;5.05;;;1.33;;
19149;SDS011;9707;49.158;8.632;2022-08-01T12:03:23;1.00;;;0.80;;
19149;SDS011;9707;49.158;8.632;2022-08-01T12:05:51;3.67;;;1.20;;
19149;SDS011;9707;49.158;8.632;2022-08-01T12:08:26;1.65;;;1.08;;
19149;SDS011;9707;49.158;8.632;2022-08-01T12:11:02;1.63;;;1.00;;
19149;SDS011;9707;49.158;8.632;2022-08-01T12:13:38;1.40;;;0.90;;
19149;SDS011;9707;49.158;8.632;2022-08-01T12:16:08;2.35;;;1.40;;
19149;SDS011;9707;49.158;8.632;2022-08-01T12:18:38;1.65;;;0.90;;
19149;SDS011;9707;49.158;8.632;2022-08-01T12:21:05;1.23;;;1.02;;
19149;SDS011;9707;49.158;8.632;2022-08-01T12:23:30;1.48;;;0.82;;
19149;SDS011;9707;49.158;8.632;2022-08-01T12:25:55;1.52;;;1.02;;
19149;SDS011;9707;49.158;8.632;2022-08-01T12:28:21;1.85;;;1.20;;
19149;SDS011;9707;49.158;8.632;2022-08-01T12:30:48;2.55;;;0.95;;
19149;SDS011;9707;49.158;8.632;2022-08-01T12:33:16;1.77;;;0.98;;
19149;SDS011;9707;49.158;8.632;2022-08-01T12:35:43;2.25;;;1.00;;
19149;SDS011;9707;49.158;8.632;2022-08-01T12:38:16;1.20;;;0.88;;
19149;SDS011;9707;49.158;8.632;2022-08-01T12:40:44;2.13;;;0.95;;
19149;SDS011;9707;49.158;8.632;2022-08-01T12:43:15;1.50;;;1.00;;
19149;SDS011;9707;49.158;8.632;2022-08-01T12:45:45;2.88;;;1.17;;
19149;SDS011;9707;49.158;8.632;2022-08-01T12:48:13;1.02;;;0.77;;
19149;SDS011;9707;49.158;8.632;2022-08-01T12:50:42;0.73;;;0.70;;
19149;SDS011;9707;49.158;8.632;2022-08-01T12:53:10;1.73;;;0.80;;
19149;SDS011;9707;49.158;8.632;2022-08-01T12:55:44;1.58;;;0.80;;
19149;SDS011;9707;49.158;8.632;2022-08-01T12:58:14;1.65;;;0.88;;
19149;SDS011;9707;49.158;8.632;2022-08-01T13:00:42;2.22;;;0.77;;
19149;SDS011;9707;49.158;8.632;2022-08-01T13:03:10;0.93;;;0.80;;
19149;SDS011;9707;49.158;8.632;2022-08-01T13:05:45;1.35;;;0.90;;
19149;SDS011;9707;49.158;8.632;2022-08-01T13:08:23;3.90;;;0.98;;
19149;SDS011;9707;49.158;8.632;2022-08-01T13:16:09;0.80;;;0.80;;
19149;SDS011;9707;49.158;8.632;2022-08-01T13:18:35;0.70;;;0.70;;
19149;SDS011;9707;49.158;8.632;2022-08-01T13:23:35;3.20;;;0.82;;
19149;SDS011;9707;49.158;8.632;2022-08-01T13:26:01;0.90;;;0.68;;
19149;SDS011;9707;49.158;8.632;2022-08-01T13:28:27;1.48;;;0.98;;
19149;SDS011;9707;49.158;8.632;2022-08-01T13:33:22;1.42;;;1.00;;
19149;SDS011;9707;49.158;8.632;2022-08-01T13:35:55;1.35;;;1.20;;
19149;SDS011;9707;49.158;8.632;2022-08-01T13:38:21;1.83;;;1.10;;
19149;SDS011;9707;49.158;8.632;2022-08-01T13:41:07;1.20;;;1.00;;
19149;SDS011;9707;49.158;8.632;2022-08-01T13:43:32;1.20;;;0.60;;
19149;SDS011;9707;49.158;8.632;2022-08-01T13:45:59;1.30;;;0.85;;
19149;SDS011;9707;49.158;8.632;2022-08-01T13:48:27;2.45;;;0.88;;
19149;SDS011;9707;49.158;8.632;2022-08-01T13:50:53;0.77;;;0.70;;
19149;SDS011;9707;49.158;8.632;2022-08-01T13:53:18;3.08;;;0.93;;
19149;SDS011;9707;49.158;8.632;2022-08-01T13:55:43;1.08;;;0.80;;
19149;SDS011;9707;49.158;8.632;2022-08-01T13:58:09;1.45;;;0.95;;
19149;SDS011;9707;49.158;8.632;2022-08-01T14:00:35;3.88;;;0.90;;
19149;SDS011;9707;49.158;8.632;2022-08-01T14:03:00;2.78;;;0.68;;
19149;SDS011;9707;49.158;8.632;2022-08-01T14:05:25;1.25;;;1.13;;
19149;SDS011;9707;49.158;8.632;2022-08-01T14:07:51;1.35;;;0.75;;
19149;SDS011;9707;49.158;8.632;2022-08-01T14:10:17;3.13;;;0.75;;
19149;SDS011;9707;49.158;8.632;2022-08-01T14:12:42;1.23;;;0.80;;
19149;SDS011;9707;49.158;8.632;2022-08-01T14:15:08;1.40;;;0.70;;
19149;SDS011;9707;49.158;8.632;2022-08-01T14:17:33;2.83;;;1.13;;
19149;SDS011;9707;49.158;8.632;2022-08-01T14:19:59;0.93;;;0.70;;
19149;SDS011;9707;49.158;8.632;2022-08-01T14:22:24;1.55;;;0.60;;
19149;SDS011;9707;49.158;8.632;2022-08-01T14:24:49;3.63;;;1.27;;
19149;SDS011;9707;49.158;8.632;2022-08-01T14:27:15;2.58;;;0.80;;
19149;SDS011;9707;49.158;8.632;2022-08-01T14:29:40;2.50;;;0.82;;
19149;SDS011;9707;49.158;8.632;2022-08-01T14:32:05;2.03;;;0.70;;
19149;SDS011;9707;49.158;8.632;2022-08-01T14:34:31;2.58;;;0.80;;
19149;SDS011;9707;49.158;8.632;2022-08-01T14:36:56;0.90;;;0.70;;
19149;SDS011;9707;49.158;8.632;2022-08-01T14:39:21;0.80;;;0.73;;
19149;SDS011;9707;49.158;8.632;2022-08-01T14:41:47;0.88;;;0.82;;
19149;SDS011;9707;49.158;8.632;2022-08-01T14:44:12;1.20;;;0.88;;
19149;SDS011;9707;49.158;8.632;2022-08-01T14:46:37;1.33;;;0.77;;
19149;SDS011;9707;49.158;8.632;2022-08-01T14:49:03;2.35;;;0.90;;
19149;SDS011;9707;49.158;8.632;2022-08-01T14:51:28;1.38;;;0.90;;
19149;SDS011;9707;49.158;8.632;2022-08-01T14:53:57;1.67;;;0.70;;
19149;SDS011;9707;49.158;8.632;2022-08-01T14:56:23;1.55;;;0.70;;
19149;SDS011;9707;49.158;8.632;2022-08-01T14:58:48;2.28;;;0.55;;
19149;SDS011;9707;49.158;8.632;2022-08-01T15:01:14;0.70;;;0.70;;
19149;SDS011;9707;49.158;8.632;2022-08-01T15:03:39;1.17;;;0.70;;
19149;SDS011;9707;49.158;8.632;2022-08-01T15:06:05;2.05;;;0.60;;
19149;SDS011;9707;49.158;8.632;2022-08-01T15:08:31;0.85;;;0.55;;
19149;SDS011;9707;49.158;8.632;2022-08-01T15:10:57;0.70;;;0.52;;
19149;SDS011;9707;49.158;8.632;2022-08-01T15:13:22;0.70;;;0.55;;
19149;SDS011;9707;49.158;8.632;2022-08-01T15:15:48;0.63;;;0.60;;
19149;SDS011;9707;49.158;8.632;2022-08-01T15:18:13;1.80;;;0.60;;
19149;SDS011;9707;49.158;8.632;2022-08-01T15:20:39;1.20;;;0.60;;
19149;SDS011;9707;49.158;8.632;2022-08-01T15:23:04;0.80;;;0.60;;
19149;SDS011;9707;49.158;8.632;2022-08-01T15:25:30;1.75;;;0.60;;
19149;SDS011;9707;49.158;8.632;2022-08-01T15:27:55;0.93;;;0.65;;
19149;SDS011;9707;49.158;8.632;2022-08-01T15:30:20;1.50;;;0.70;;
19149;SDS011;9707;49.158;8.632;2022-08-01T15:32:46;0.85;;;0.77;;
19149;SDS011;9707;49.158;8.632;2022-08-01T15:35:11;1.55;;;0.70;;
19149;SDS011;9707;49.158;8.632;2022-08-01T15:37:37;1.42;;;0.85;;
19149;SDS011;9707;49.158;8.632;2022-08-01T15:40:02;0.70;;;0.68;;
19149;SDS011;9707;49.158;8.632;2022-08-01T15:42:28;2.10;;;0.57;;
19149;SDS011;9707;49.158;8.632;2022-08-01T15:44:54;2.00;;;0.77;;
19149;SDS011;9707;49.158;8.632;2022-08-01T15:47:19;2.38;;;0.80;;
19149;SDS011;9707;49.158;8.632;2022-08-01T15:49:45;0.60;;;0.50;;
19149;SDS011;9707;49.158;8.632;2022-08-01T15:52:10;2.45;;;0.63;;
19149;SDS011;9707;49.158;8.632;2022-08-01T15:54:35;1.10;;;0.52;;
19149;SDS011;9707;49.158;8.632;2022-08-01T15:57:01;1.48;;;0.77;;
19149;SDS011;9707;49.158;8.632;2022-08-01T15:59:27;1.58;;;0.73;;
19149;SDS011;9707;49.158;8.632;2022-08-01T16:01:53;1.75;;;0.75;;